Time;durP1;ratioP1;P1;durP2;ratioP2;P2;SDS_P1;SDS_P2;PMS_P1;PMS_P2;Temp;Humidity;BMP_temperature;BMP_pressure;BME280_temperature;BME280_humidity;BME280_pressure;Samples;Min_cycle;Max_cycle;Signal;HPM_P1;HPM_P2
2021/10/29 00:02:02;;;;;;;7.10;5.47;;;12.70;96.70;;;;;;4940214;28;20070;-76
2021/10/29 00:04:31;;;;;;;7.43;5.57;;;12.80;96.70;;;;;;4937899;29;20051;-75
2021/10/29 00:06:59;;;;;;;9.65;5.55;;;12.90;96.70;;;;;;4923183;28;20736;-75
2021/10/29 00:09:30;;;;;;;8.10;5.63;;;12.80;96.70;;;;;;4938247;29;20046;-75
2021/10/29 00:11:59;;;;;;;7.15;5.00;;;12.70;96.70;;;;;;4955518;28;20053;-75
2021/10/29 00:14:30;;;;;;;6.05;5.30;;;12.70;96.70;;;;;;4940013;28;20094;-75
2021/10/29 00:17:01;;;;;;;6.15;5.55;;;12.80;96.70;;;;;;4956007;28;20587;-75
2021/10/29 00:19:29;;;;;;;5.95;4.43;;;12.80;96.70;;;;;;4940308;29;20066;-75
2021/10/29 00:21:58;;;;;;;7.82;5.00;;;12.60;96.70;;;;;;4941029;28;20076;-75
2021/10/29 00:24:26;;;;;;;6.80;5.20;;;12.50;96.70;;;;;;4937707;29;20047;-75
2021/10/29 00:26:56;;;;;;;6.93;4.82;;;12.60;96.70;;;;;;4940421;28;20051;-75
2021/10/29 00:29:25;;;;;;;6.13;4.13;;;12.60;96.70;;;;;;4942472;29;20043;-75
2021/10/29 00:31:53;;;;;;;5.57;4.40;;;12.60;96.70;;;;;;4953792;28;20436;-75
2021/10/29 00:34:24;;;;;;;5.95;4.75;;;12.60;96.70;;;;;;4936959;28;20134;-75
2021/10/29 00:36:52;;;;;;;6.47;4.80;;;12.50;96.70;;;;;;4941843;29;20063;-75
2021/10/29 00:39:21;;;;;;;5.80;4.57;;;12.40;96.70;;;;;;4942211;28;20054;-75
2021/10/29 00:41:49;;;;;;;7.22;4.80;;;12.40;96.70;;;;;;4940942;28;20497;-76
2021/10/29 00:44:22;;;;;;;4.95;4.35;;;12.50;96.70;;;;;;4940901;28;20054;-75
2021/10/29 00:46:51;;;;;;;7.50;4.57;;;12.50;96.70;;;;;;4939628;28;20043;-75
2021/10/29 00:49:20;;;;;;;6.45;3.72;;;12.40;96.70;;;;;;4939883;28;20047;-75
2021/10/29 00:51:50;;;;;;;4.78;3.83;;;12.50;96.70;;;;;;4939145;28;20047;-75
2021/10/29 00:54:20;;;;;;;4.65;3.47;;;12.50;96.70;;;;;;4930380;29;20046;-75
2021/10/29 00:56:49;;;;;;;4.63;3.63;;;12.40;96.70;;;;;;4941940;28;20042;-75
2021/10/29 00:59:18;;;;;;;6.07;4.53;;;12.30;96.70;;;;;;4942099;28;20090;-75
2021/10/29 01:01:48;;;;;;;7.00;4.38;;;12.40;96.70;;;;;;4940391;28;20066;-76
2021/10/29 01:04:17;;;;;;;6.28;4.38;;;12.30;96.70;;;;;;4939253;29;20062;-75
2021/10/29 01:06:46;;;;;;;8.00;4.40;;;12.30;96.70;;;;;;4938849;28;20048;-75
2021/10/29 01:09:16;;;;;;;9.75;3.90;;;12.30;96.70;;;;;;4939762;28;20039;-75
2021/10/29 01:11:44;;;;;;;5.60;4.43;;;12.30;96.70;;;;;;4937079;28;20152;-75
2021/10/29 01:14:13;;;;;;;4.43;3.97;;;12.40;96.70;;;;;;4918813;29;20055;-76
2021/10/29 01:16:41;;;;;;;7.68;4.80;;;12.40;96.70;;;;;;4936839;28;20088;-75
2021/10/29 01:19:10;;;;;;;5.47;4.53;;;12.40;96.70;;;;;;4938907;28;20581;-75
2021/10/29 01:21:40;;;;;;;6.75;4.93;;;12.40;96.70;;;;;;4923349;28;20046;-75
2021/10/29 01:24:11;;;;;;;8.18;4.82;;;12.40;96.70;;;;;;4945267;28;20043;-75
2021/10/29 01:26:40;;;;;;;8.70;4.93;;;12.40;96.70;;;;;;4943102;28;20516;-75
2021/10/29 01:29:08;;;;;;;5.53;4.25;;;12.30;96.70;;;;;;4945040;28;20039;-75
2021/10/29 01:31:37;;;;;;;8.40;5.30;;;12.40;96.70;;;;;;4941719;28;20150;-75
2021/10/29 01:34:05;;;;;;;6.88;4.80;;;12.20;96.70;;;;;;4944062;29;20039;-75
2021/10/29 01:36:35;;;;;;;6.20;4.28;;;12.20;96.70;;;;;;4918082;28;20055;-76
2021/10/29 01:39:05;;;;;;;6.65;5.05;;;12.20;96.70;;;;;;4942416;28;20504;-75
2021/10/29 01:41:33;;;;;;;7.03;5.43;;;12.20;96.70;;;;;;4917502;28;20098;-75
2021/10/29 01:44:02;;;;;;;6.78;5.10;;;12.30;96.70;;;;;;4944230;28;20067;-75
2021/10/29 01:46:31;;;;;;;7.15;5.57;;;12.20;96.70;;;;;;4934128;29;20043;-75
2021/10/29 01:48:59;;;;;;;7.15;5.30;;;12.00;96.70;;;;;;4939865;28;20055;-75
2021/10/29 01:51:28;;;;;;;11.02;5.75;;;11.90;96.70;;;;;;4948842;28;20126;-75
2021/10/29 01:53:56;;;;;;;7.45;5.53;;;11.90;96.70;;;;;;4945648;28;20043;-75
2021/10/29 01:56:27;;;;;;;8.00;5.50;;;11.90;96.70;;;;;;4949471;28;20047;-75
2021/10/29 01:58:55;;;;;;;6.80;5.15;;;11.90;96.70;;;;;;4949463;28;20043;-75
2021/10/29 02:01:24;;;;;;;10.25;5.50;;;11.80;96.70;;;;;;4943178;28;20094;-76
2021/10/29 02:03:53;;;;;;;7.55;5.30;;;11.70;96.70;;;;;;4946944;28;20047;-76
2021/10/29 02:06:21;;;;;;;9.50;5.68;;;11.70;96.70;;;;;;4944545;28;20483;-75
2021/10/29 02:08:50;;;;;;;6.35;5.30;;;11.60;96.70;;;;;;4918775;28;20048;-75
2021/10/29 02:11:18;;;;;;;7.70;5.38;;;11.50;96.70;;;;;;4944991;28;20114;-75
2021/10/29 02:13:48;;;;;;;6.85;5.40;;;11.50;96.70;;;;;;4947258;28;20478;-76
2021/10/29 02:16:16;;;;;;;6.07;5.30;;;11.40;96.70;;;;;;4944815;28;20126;-75
2021/10/29 02:18:45;;;;;;;9.13;5.65;;;11.30;96.70;;;;;;4952887;28;20042;-75
2021/10/29 02:21:13;;;;;;;7.40;5.53;;;11.30;96.70;;;;;;4945231;28;20047;-75
2021/10/29 02:23:41;;;;;;;6.88;5.45;;;11.20;96.70;;;;;;4945741;28;20201;-75
2021/10/29 02:26:10;;;;;;;8.73;5.57;;;11.20;96.70;;;;;;4943967;28;20150;-75
2021/10/29 02:28:38;;;;;;;9.25;5.80;;;11.10;96.70;;;;;;4947386;28;20078;-76
2021/10/29 02:31:08;;;;;;;7.38;5.57;;;11.20;96.70;;;;;;4943718;28;20039;-75
2021/10/29 02:33:38;;;;;;;9.73;5.97;;;11.20;96.70;;;;;;4942544;28;20122;-75
2021/10/29 02:36:06;;;;;;;5.75;5.15;;;11.30;96.70;;;;;;4934056;29;20066;-75
2021/10/29 02:38:35;;;;;;;9.02;5.43;;;11.40;96.70;;;;;;4918957;28;20071;-75
2021/10/29 02:41:03;;;;;;;7.53;5.30;;;11.40;96.70;;;;;;4945435;29;20154;-75
2021/10/29 02:43:32;;;;;;;8.45;5.10;;;11.40;96.70;;;;;;4945533;28;20051;-75
2021/10/29 02:46:00;;;;;;;6.20;5.28;;;11.30;96.70;;;;;;4937214;28;20133;-75
2021/10/29 02:48:30;;;;;;;11.75;5.85;;;11.30;96.70;;;;;;4930604;28;20051;-75
2021/10/29 02:50:59;;;;;;;7.25;5.80;;;11.40;96.70;;;;;;4918385;28;20495;-76
2021/10/29 02:53:30;;;;;;;8.10;5.47;;;11.40;96.70;;;;;;4966316;28;20044;-76
2021/10/29 02:55:58;;;;;;;8.20;5.28;;;11.40;96.70;;;;;;4931692;29;20051;-75
2021/10/29 02:58:30;;;;;;;7.35;5.28;;;11.40;96.70;;;;;;4945702;28;20047;-76
2021/10/29 03:00:59;;;;;;;6.43;5.20;;;11.40;96.70;;;;;;4941537;28;20058;-75
2021/10/29 03:03:30;;;;;;;6.32;5.25;;;11.30;96.70;;;;;;4939595;28;20062;-76
2021/10/29 03:05:59;;;;;;;8.93;5.05;;;11.30;96.70;;;;;;4941899;29;20047;-75
2021/10/29 03:08:27;;;;;;;7.00;5.10;;;11.40;96.70;;;;;;4943506;28;20043;-76
2021/10/29 03:10:56;;;;;;;7.05;4.93;;;11.50;96.70;;;;;;4928768;29;20078;-75
2021/10/29 03:13:26;;;;;;;9.32;5.00;;;11.40;96.70;;;;;;4943130;28;20054;-75
2021/10/29 03:15:54;;;;;;;8.75;4.60;;;11.40;96.70;;;;;;4942319;28;20051;-75
2021/10/29 03:18:23;;;;;;;7.65;4.60;;;11.40;96.70;;;;;;4941625;28;20121;-75
2021/10/29 03:20:56;;;;;;;6.00;4.20;;;11.40;96.70;;;;;;4939752;29;20570;-75
2021/10/29 03:23:26;;;;;;;6.38;4.93;;;11.30;96.70;;;;;;4944850;28;20085;-76
2021/10/29 03:25:54;;;;;;;7.50;5.10;;;11.30;96.70;;;;;;4945466;28;20129;-76
2021/10/29 03:28:23;;;;;;;6.95;4.20;;;11.20;96.70;;;;;;4933165;29;20048;-75
2021/10/29 03:30:51;;;;;;;6.63;4.53;;;11.20;96.70;;;;;;4938940;28;20427;-75
2021/10/29 03:33:20;;;;;;;7.50;4.65;;;11.30;96.70;;;;;;4944921;28;20039;-75
2021/10/29 03:35:49;;;;;;;6.65;5.22;;;11.30;96.70;;;;;;4942701;28;20045;-75
2021/10/29 03:41:03;;;;;;;7.88;4.95;;;11.40;96.70;;;;;;4946538;28;20055;-76
2021/10/29 03:43:56;;;;;;;5.95;4.72;;;11.30;96.70;;;;;;4935476;29;20170;-80
2021/10/29 03:46:26;;;;;;;7.82;4.82;;;11.40;96.70;;;;;;4947207;28;20388;-80
2021/10/29 03:54:05;;;;;;;7.70;4.80;;;11.20;96.70;;;;;;4946467;28;20051;-80
2021/10/29 03:59:35;;;;;;;6.95;5.07;;;11.10;96.70;;;;;;4908092;28;20406;-80
2021/10/29 04:02:07;;;;;;;8.40;5.03;;;11.20;96.70;;;;;;4942704;28;20043;-81
2021/10/29 04:04:36;;;;;;;8.20;5.10;;;11.10;96.70;;;;;;4933175;29;20047;-80
2021/10/29 04:07:04;;;;;;;8.63;5.22;;;11.00;96.70;;;;;;4927573;29;20413;-81
2021/10/29 04:09:34;;;;;;;6.15;4.10;;;10.90;96.70;;;;;;4946117;28;20294;-80
2021/10/29 04:12:04;;;;;;;7.88;5.30;;;11.00;96.70;;;;;;4943086;28;20063;-80
2021/10/29 04:14:32;;;;;;;8.63;5.03;;;11.00;96.70;;;;;;4938194;29;20130;-81
2021/10/29 04:17:01;;;;;;;7.38;5.20;;;11.00;96.70;;;;;;4941229;28;20130;-80
2021/10/29 04:19:30;;;;;;;8.30;4.53;;;11.00;96.70;;;;;;4926615;28;20047;-80
2021/10/29 04:22:00;;;;;;;6.32;4.85;;;10.90;96.70;;;;;;4929505;29;20043;-80
2021/10/29 04:24:28;;;;;;;6.80;4.60;;;10.90;96.70;;;;;;4939374;28;20321;-80
2021/10/29 04:27:00;;;;;;;6.78;4.93;;;11.00;96.70;;;;;;4941608;28;20133;-80
2021/10/29 04:29:36;;;;;;;8.73;4.22;;;10.90;96.70;;;;;;4946148;28;20504;-80
2021/10/29 04:32:04;;;;;;;7.05;5.20;;;10.90;96.70;;;;;;4939357;28;20051;-81
2021/10/29 04:34:33;;;;;;;6.93;4.85;;;10.80;96.70;;;;;;4943620;28;20037;-78
2021/10/29 04:37:02;;;;;;;9.32;5.10;;;10.90;96.70;;;;;;4940630;28;20695;-79
2021/10/29 04:39:31;;;;;;;8.65;4.80;;;10.90;96.70;;;;;;4944275;28;20043;-79
2021/10/29 04:42:01;;;;;;;8.38;5.28;;;10.90;96.70;;;;;;4942160;28;20371;-79
2021/10/29 04:44:29;;;;;;;7.95;4.82;;;10.80;96.70;;;;;;4944860;28;20047;-78
2021/10/29 04:46:57;;;;;;;7.60;4.93;;;10.80;96.70;;;;;;4937896;28;20058;-79
2021/10/29 04:49:30;;;;;;;5.68;4.40;;;10.90;96.70;;;;;;4919623;29;20043;-79
2021/10/29 04:52:00;;;;;;;8.98;4.88;;;10.90;96.70;;;;;;4939800;28;20041;-79
2021/10/29 04:54:29;;;;;;;6.95;5.63;;;11.00;96.70;;;;;;4945287;28;20039;-79
2021/10/29 04:56:57;;;;;;;7.85;5.00;;;10.90;96.70;;;;;;4936747;28;20075;-79
2021/10/29 04:59:27;;;;;;;7.07;5.03;;;10.90;96.70;;;;;;4940298;28;20047;-79
2021/10/29 05:01:55;;;;;;;6.53;4.43;;;10.80;96.70;;;;;;4926000;28;20047;-79
2021/10/29 05:04:24;;;;;;;8.25;5.20;;;10.80;96.70;;;;;;4921410;29;20062;-79
2021/10/29 05:06:52;;;;;;;6.72;4.75;;;10.80;96.70;;;;;;4937577;28;20521;-79
2021/10/29 05:09:20;;;;;;;9.68;5.65;;;10.80;96.70;;;;;;4943294;28;20038;-79
2021/10/29 05:11:48;;;;;;;6.93;5.07;;;10.70;96.70;;;;;;4916013;29;20055;-79
2021/10/29 05:14:16;;;;;;;8.60;4.93;;;10.70;96.70;;;;;;4941086;28;20039;-79
2021/10/29 05:16:46;;;;;;;8.27;4.95;;;10.70;96.70;;;;;;4934531;29;20118;-79
2021/10/29 05:19:15;;;;;;;8.20;4.70;;;10.80;96.70;;;;;;4946196;28;20094;-79
2021/10/29 05:21:43;;;;;;;8.02;5.05;;;10.70;96.70;;;;;;4946586;28;20043;-79
2021/10/29 05:24:12;;;;;;;8.88;4.35;;;10.70;96.70;;;;;;4928050;29;20135;-79
2021/10/29 05:26:40;;;;;;;9.63;4.93;;;10.70;96.70;;;;;;4939011;28;20050;-78
2021/10/29 05:29:09;;;;;;;6.88;4.90;;;10.60;96.70;;;;;;4919500;29;20162;-79
2021/10/29 05:31:37;;;;;;;6.78;4.93;;;10.60;96.70;;;;;;4939694;28;20050;-79
2021/10/29 05:34:07;;;;;;;8.48;4.82;;;10.60;96.70;;;;;;4939706;29;20420;-78
2021/10/29 05:36:38;;;;;;;6.05;4.90;;;10.50;96.70;;;;;;4944474;28;20058;-78
2021/10/29 05:39:07;;;;;;;8.38;4.55;;;10.40;96.70;;;;;;4940718;28;20048;-79
2021/10/29 05:41:36;;;;;;;9.45;4.75;;;10.30;96.70;;;;;;4935611;28;20040;-78
2021/10/29 05:44:05;;;;;;;6.47;4.72;;;10.40;96.70;;;;;;4942331;28;20817;-79
2021/10/29 05:46:34;;;;;;;8.35;4.78;;;10.50;96.70;;;;;;4944844;28;20051;-78
2021/10/29 05:49:02;;;;;;;8.40;4.95;;;10.60;96.70;;;;;;4941401;28;20066;-78
2021/10/29 05:51:34;;;;;;;9.13;5.18;;;10.70;96.70;;;;;;4932784;28;20047;-79
2021/10/29 05:54:24;;;;;;;8.45;4.95;;;10.60;96.70;;;;;;4939074;28;20048;-78
2021/10/29 05:56:53;;;;;;;8.40;4.75;;;10.60;96.70;;;;;;4941683;28;20058;-79
2021/10/29 05:59:21;;;;;;;8.63;5.00;;;10.60;96.70;;;;;;4941501;28;20446;-79
2021/10/29 06:01:49;;;;;;;10.20;5.28;;;10.60;96.70;;;;;;4928977;28;20032;-78
2021/10/29 06:04:18;;;;;;;6.43;4.50;;;10.60;96.70;;;;;;4945587;28;20129;-78
2021/10/29 06:06:47;;;;;;;7.95;5.20;;;10.60;96.70;;;;;;4919173;29;20036;-79
2021/10/29 06:09:16;;;;;;;8.35;5.20;;;10.60;96.70;;;;;;4918740;28;20047;-79
2021/10/29 06:11:44;;;;;;;7.20;5.25;;;10.70;96.70;;;;;;4932344;29;20043;-78
2021/10/29 06:14:14;;;;;;;9.40;5.47;;;10.60;96.70;;;;;;4950228;28;20153;-79
2021/10/29 06:16:42;;;;;;;10.85;5.30;;;10.60;96.70;;;;;;4943274;28;20453;-79
2021/10/29 06:19:12;;;;;;;9.05;5.32;;;10.60;96.70;;;;;;4946428;28;20090;-79
2021/10/29 06:21:56;;;;;;;8.20;5.20;;;10.60;96.70;;;;;;4929264;29;20094;-79
2021/10/29 06:24:27;;;;;;;6.88;5.22;;;10.50;96.70;;;;;;4948827;28;20051;-78
2021/10/29 06:29:42;;;;;;;7.75;5.10;;;10.60;96.70;;;;;;4947737;28;20054;-79
2021/10/29 06:32:10;;;;;;;7.88;5.32;;;10.60;96.70;;;;;;4945508;28;20035;-79
2021/10/29 06:34:39;;;;;;;6.93;5.13;;;10.70;96.70;;;;;;4944315;28;20461;-77
2021/10/29 06:37:13;;;;;;;9.30;5.35;;;10.70;96.70;;;;;;4939021;28;20556;-77
2021/10/29 06:39:45;;;;;;;8.20;5.70;;;10.70;96.70;;;;;;4948946;28;20046;-79
2021/10/29 06:42:19;;;;;;;11.00;5.20;;;10.70;96.70;;;;;;4941391;28;20133;-79
2021/10/29 07:01:05;;;;;;;8.75;5.70;;;10.90;96.70;;;;;;4957449;28;20099;-77
2021/10/29 07:42:18;;;;;;;9.73;6.32;;;11.80;96.70;;;;;;4946004;28;20043;-81
2021/10/29 07:44:48;;;;;;;11.70;6.32;;;11.80;96.70;;;;;;4941547;29;20043;-79
2021/10/29 07:47:16;;;;;;;9.40;5.60;;;11.90;96.70;;;;;;4922023;29;20051;-80
2021/10/29 07:49:44;;;;;;;10.38;5.75;;;12.00;96.70;;;;;;4940081;29;20062;-79
2021/10/29 07:52:14;;;;;;;8.73;6.82;;;12.20;96.70;;;;;;4930382;29;20532;-79
2021/10/29 07:54:45;;;;;;;10.07;6.57;;;12.20;96.70;;;;;;4940127;29;20039;-81
2021/10/29 07:57:18;;;;;;;13.63;6.47;;;12.40;96.70;;;;;;4943744;28;20048;-78
2021/10/29 07:59:49;;;;;;;10.23;7.07;;;12.40;96.70;;;;;;4946747;28;20141;-77
2021/10/29 08:02:17;;;;;;;12.80;7.00;;;12.50;96.70;;;;;;4941498;28;20047;-77
2021/10/29 08:04:46;;;;;;;13.35;7.32;;;12.50;96.70;;;;;;4943596;28;20049;-79
2021/10/29 08:07:15;;;;;;;11.07;7.55;;;12.60;96.70;;;;;;4943004;28;20576;-78
2021/10/29 08:09:44;;;;;;;10.30;6.90;;;12.70;96.70;;;;;;4946048;28;20449;-77
2021/10/29 08:12:17;;;;;;;13.38;7.38;;;12.80;96.70;;;;;;4940237;28;20098;-76
2021/10/29 08:14:47;;;;;;;9.32;6.70;;;12.90;96.70;;;;;;4944865;28;20039;-77
2021/10/29 08:17:16;;;;;;;9.85;6.35;;;13.00;96.70;;;;;;4943872;28;20173;-77
2021/10/29 08:19:44;;;;;;;7.82;5.82;;;13.10;96.70;;;;;;4940047;28;20070;-77
2021/10/29 08:22:13;;;;;;;8.18;5.85;;;13.20;96.70;;;;;;4952189;28;20043;-77
2021/10/29 08:24:42;;;;;;;8.80;6.57;;;13.20;96.70;;;;;;4951009;28;20087;-76
2021/10/29 08:27:10;;;;;;;10.13;6.05;;;13.30;96.70;;;;;;4929174;28;20050;-76
2021/10/29 08:29:39;;;;;;;8.48;6.45;;;13.30;96.70;;;;;;4948593;28;20050;-76
2021/10/29 08:32:10;;;;;;;9.85;6.30;;;13.40;96.70;;;;;;4945793;28;20134;-76
2021/10/29 08:34:38;;;;;;;8.10;6.35;;;13.50;96.70;;;;;;4965280;28;20039;-76
2021/10/29 08:37:07;;;;;;;8.95;6.57;;;13.50;96.70;;;;;;4944082;28;20054;-76
2021/10/29 08:39:38;;;;;;;9.65;6.18;;;13.60;96.70;;;;;;4945128;28;20069;-77
2021/10/29 08:42:07;;;;;;;8.60;6.13;;;13.60;96.70;;;;;;4940967;28;20079;-77
2021/10/29 08:44:36;;;;;;;9.30;6.45;;;13.70;96.70;;;;;;4942060;28;20049;-77
2021/10/29 08:47:05;;;;;;;10.15;6.65;;;13.70;96.70;;;;;;4937859;28;20134;-79
2021/10/29 08:49:35;;;;;;;13.63;6.75;;;13.90;96.70;;;;;;4941458;28;20051;-79
2021/10/29 08:52:07;;;;;;;8.77;6.25;;;14.00;96.70;;;;;;4941541;28;20134;-78
2021/10/29 08:54:35;;;;;;;10.70;6.43;;;14.10;96.70;;;;;;4940480;28;20469;-81
2021/10/29 08:57:04;;;;;;;9.20;6.53;;;14.20;96.70;;;;;;4941996;28;20575;-78
2021/10/29 08:59:33;;;;;;;9.77;6.43;;;14.30;96.70;;;;;;4944227;28;20348;-77
2021/10/29 09:02:14;;;;;;;10.18;7.10;;;14.30;96.70;;;;;;4941086;28;20050;-77
2021/10/29 09:04:56;;;;;;;8.30;6.72;;;14.30;96.70;;;;;;4937743;28;20039;-77
2021/10/29 09:07:38;;;;;;;11.80;7.57;;;14.40;96.70;;;;;;4945975;28;20123;-78
2021/10/29 09:32:24;;;;;;;;;;;15.30;96.70;;;;;;4943136;28;20516;-76
2021/10/29 09:35:00;;;;;;;9.45;7.50;;;15.50;96.70;;;;;;4940948;28;20372;-76
2021/10/29 09:37:36;;;;;;;;;;;15.50;96.70;;;;;;4931921;28;20189;-76
2021/10/29 09:40:27;;;;;;;10.57;7.72;;;15.60;96.70;;;;;;4941642;28;19930;-76
2021/10/29 09:43:00;;;;;;;9.93;6.95;;;15.80;96.70;;;;;;4943024;28;20126;-76
2021/10/29 09:45:30;;;;;;;10.25;7.28;;;15.90;96.70;;;;;;4947607;28;20047;-76
2021/10/29 09:48:18;;;;;;;8.50;7.32;;;16.00;96.70;;;;;;4948303;28;20050;-76
2021/10/29 09:50:58;;;;;;;10.40;7.35;;;16.10;96.70;;;;;;4949893;28;20138;-75
2021/10/29 09:56:15;;;;;;;11.13;7.95;;;16.10;96.70;;;;;;4947935;28;20508;-76
2021/10/29 09:58:44;;;;;;;11.20;7.72;;;16.20;96.70;;;;;;4944143;29;20050;-76
2021/10/29 10:01:13;;;;;;;10.93;7.18;;;16.30;96.70;;;;;;4950258;28;20544;-76
2021/10/29 10:03:42;;;;;;;12.95;7.20;;;16.40;96.70;;;;;;4942403;29;20539;-76
2021/10/29 10:06:12;;;;;;;11.90;8.20;;;16.50;96.70;;;;;;4944733;28;20049;-76
2021/10/29 10:08:42;;;;;;;9.80;6.47;;;16.60;96.70;;;;;;4943363;28;20524;-76
2021/10/29 10:11:12;;;;;;;12.73;7.68;;;16.70;96.70;;;;;;4945239;28;20130;-76
2021/10/29 10:13:41;;;;;;;8.45;7.00;;;16.70;96.70;;;;;;4944978;28;20465;-76
2021/10/29 10:16:10;;;;;;;10.55;7.07;;;16.80;96.70;;;;;;4946397;28;20463;-76
2021/10/29 10:18:40;;;;;;;10.50;7.28;;;16.90;96.70;;;;;;4941882;28;20135;-76
2021/10/29 10:21:13;;;;;;;10.82;7.07;;;17.10;96.70;;;;;;4943007;28;20055;-76
2021/10/29 10:23:50;;;;;;;10.73;6.93;;;17.20;96.70;;;;;;4942301;28;20046;-76
2021/10/29 10:29:03;;;;;;;8.50;6.22;;;17.30;96.70;;;;;;4941452;28;20496;-76
2021/10/29 10:40:33;;;;;;;7.35;5.80;;;17.60;96.70;;;;;;4944765;28;20039;-76
2021/10/29 10:51:36;;;;;;;5.78;4.28;;;18.20;96.70;;;;;;4889485;29;20056;-76
2021/10/29 10:54:11;;;;;;;6.82;4.38;;;18.40;96.70;;;;;;4897782;29;20044;-76
2021/10/29 11:10:15;;;;;;;4.32;3.30;;;18.90;96.70;;;;;;4894841;29;20512;-77
2021/10/29 11:13:14;;;;;;;4.85;3.35;;;19.00;96.70;;;;;;4894191;29;20064;-77
2021/10/29 11:15:58;;;;;;;6.13;3.42;;;19.10;96.70;;;;;;4890450;29;20052;-76
2021/10/29 11:18:33;;;;;;;5.25;3.45;;;19.20;96.70;;;;;;4893818;29;20052;-76
2021/10/29 11:21:23;;;;;;;5.30;3.83;;;19.30;96.70;;;;;;4889626;29;20562;-76
2021/10/29 11:23:54;;;;;;;5.00;3.17;;;19.30;96.70;;;;;;4887144;29;20138;-76
2021/10/29 11:26:25;;;;;;;3.95;2.80;;;19.60;96.70;;;;;;4943769;28;20050;-76
2021/10/29 11:28:58;;;;;;;5.53;3.42;;;19.80;96.70;;;;;;4944999;28;20050;-77
2021/10/29 11:31:28;;;;;;;6.05;3.15;;;19.90;96.70;;;;;;4946659;28;20511;-77
2021/10/29 11:33:58;;;;;;;5.43;2.85;;;19.80;96.70;;;;;;4944343;28;20481;-77
2021/10/29 11:36:28;;;;;;;6.93;3.33;;;19.90;96.70;;;;;;4946445;28;20039;-77
2021/10/29 11:38:58;;;;;;;4.07;2.90;;;20.00;96.70;;;;;;4942648;28;20146;-76
2021/10/29 11:41:28;;;;;;;5.50;3.13;;;20.10;96.70;;;;;;4944072;28;20079;-76
2021/10/29 11:44:03;;;;;;;4.95;2.97;;;20.20;96.70;;;;;;4927360;29;20066;-76
2021/10/29 11:46:32;;;;;;;5.65;2.90;;;20.20;96.70;;;;;;4947023;28;20046;-76
2021/10/29 11:49:03;;;;;;;5.32;3.00;;;20.20;96.70;;;;;;4943679;29;20047;-76
2021/10/29 11:51:32;;;;;;;3.65;2.80;;;20.30;96.30;;;;;;4949582;28;20066;-76
2021/10/29 11:54:10;;;;;;;5.20;2.80;;;20.30;96.00;;;;;;4939674;28;20119;-76
2021/10/29 11:56:43;;;;;;;3.25;2.60;;;20.30;96.30;;;;;;4944904;28;20044;-76
2021/10/29 12:07:34;;;;;;;3.58;2.17;;;20.60;94.60;;;;;;4942418;28;20043;-76
2021/10/29 12:10:06;;;;;;;3.75;2.30;;;20.60;94.40;;;;;;4940787;28;20616;-76
2021/10/29 12:12:35;;;;;;;5.47;2.60;;;20.60;93.90;;;;;;4943052;28;20617;-76
2021/10/29 12:15:08;;;;;;;4.00;2.40;;;20.70;93.20;;;;;;4941616;28;20505;-76
2021/10/29 12:17:48;;;;;;;3.08;2.28;;;20.80;93.20;;;;;;4943824;28;20134;-76
2021/10/29 12:20:20;;;;;;;7.40;3.17;;;20.90;93.10;;;;;;4938988;28;20511;-76
2021/10/29 12:22:54;;;;;;;;;;;21.00;93.40;;;;;;4940520;28;20592;-76
2021/10/29 12:25:32;;;;;;;4.88;2.60;;;21.10;93.40;;;;;;4941536;28;19926;-77
2021/10/29 12:30:35;;;;;;;3.45;2.65;;;21.20;93.00;;;;;;4942411;28;20524;-77
2021/10/29 13:01:28;;;;;;;4.45;2.13;;;21.80;89.50;;;;;;4938345;29;20055;-77
2021/10/29 13:04:02;;;;;;;4.63;2.22;;;21.90;89.70;;;;;;4945163;28;20046;-76
2021/10/29 13:06:32;;;;;;;4.57;2.35;;;21.90;88.40;;;;;;4941433;28;20040;-76
2021/10/29 13:09:09;;;;;;;3.47;2.05;;;21.80;89.60;;;;;;4914707;29;20047;-77
2021/10/29 13:11:47;;;;;;;3.40;2.00;;;21.80;89.10;;;;;;4941201;28;20039;-77
2021/10/29 13:14:29;;;;;;;3.25;2.13;;;21.80;88.30;;;;;;4943970;28;20051;-76
2021/10/29 13:16:58;;;;;;;4.70;2.50;;;21.80;87.80;;;;;;4941167;28;20058;-77
2021/10/29 13:19:42;;;;;;;5.00;2.40;;;21.80;87.80;;;;;;4942322;28;20046;-76
2021/10/29 13:25:04;;;;;;;4.32;2.45;;;21.60;89.30;;;;;;4952200;28;20474;-77
2021/10/29 13:27:54;;;;;;;6.55;2.88;;;21.60;89.00;;;;;;4948638;28;20501;-76
2021/10/29 13:36:37;;;;;;;4.05;2.33;;;21.80;89.60;;;;;;4926215;28;20481;-76
2021/10/29 13:50:33;;;;;;;4.75;3.05;;;21.70;90.30;;;;;;4944933;28;20411;-76
2021/10/29 13:53:18;;;;;;;8.75;3.25;;;21.80;91.70;;;;;;4948915;28;20558;-76
2021/10/29 13:58:49;;;;;;;7.72;3.30;;;21.60;91.50;;;;;;4947350;28;20058;-77
2021/10/29 14:28:36;;;;;;;5.25;2.50;;;20.80;93.10;;;;;;4939376;28;20043;-77
2021/10/29 14:36:56;;;;;;;4.57;3.10;;;20.60;93.20;;;;;;4915477;28;20055;-76
2021/10/29 14:42:21;;;;;;;6.35;3.35;;;20.40;94.00;;;;;;4944738;28;20047;-76
2021/10/29 14:47:41;;;;;;;7.03;3.22;;;20.30;94.30;;;;;;4938470;28;20481;-76
2021/10/29 15:41:45;;;;;;;7.75;3.55;;;19.60;96.70;;;;;;4906522;29;20079;-75
2021/10/29 15:44:16;;;;;;;7.10;3.40;;;19.60;96.70;;;;;;4919162;29;20052;-75
2021/10/29 15:47:00;;;;;;;5.93;3.67;;;19.50;96.70;;;;;;4902719;29;20488;-75
2021/10/29 15:49:42;;;;;;;7.15;3.88;;;19.50;96.70;;;;;;4935138;29;20075;-75
2021/10/29 15:52:14;;;;;;;10.35;4.00;;;19.40;96.70;;;;;;4947585;28;20038;-74
2021/10/29 15:54:56;;;;;;;8.70;3.75;;;19.30;96.70;;;;;;4943911;29;20047;-75
2021/10/29 15:57:26;;;;;;;7.45;3.60;;;19.30;96.70;;;;;;4943414;28;20058;-74
2021/10/29 16:18:59;;;;;;;11.52;5.15;;;18.60;96.70;;;;;;4940963;28;20492;-74
2021/10/29 16:21:27;;;;;;;14.07;5.22;;;18.50;96.70;;;;;;4940295;28;20049;-75
2021/10/29 16:23:55;;;;;;;11.48;5.10;;;18.30;96.70;;;;;;4942620;28;20047;-75
2021/10/29 16:26:24;;;;;;;13.30;5.28;;;18.30;96.70;;;;;;4946280;28;20126;-75
2021/10/29 16:28:53;;;;;;;14.00;5.47;;;18.30;96.70;;;;;;4944017;28;20412;-75
2021/10/29 16:31:23;;;;;;;10.88;5.35;;;18.30;96.70;;;;;;4944484;28;20052;-75
2021/10/29 16:33:51;;;;;;;10.55;5.00;;;18.20;96.70;;;;;;4933741;28;20445;-74
2021/10/29 16:36:20;;;;;;;12.00;5.10;;;18.20;96.70;;;;;;4942830;28;20047;-75
2021/10/29 16:38:49;;;;;;;16.27;5.18;;;18.20;96.70;;;;;;4927596;28;20054;-75
2021/10/29 16:41:17;;;;;;;9.60;5.38;;;18.20;96.70;;;;;;4945427;28;20047;-75
2021/10/29 16:43:45;;;;;;;9.20;5.03;;;18.10;96.70;;;;;;4946023;28;20090;-75
2021/10/29 16:46:13;;;;;;;12.98;5.50;;;18.10;96.70;;;;;;4942981;28;20045;-75
2021/10/29 16:48:42;;;;;;;11.15;5.43;;;18.10;96.70;;;;;;4945058;28;20154;-75
2021/10/29 16:51:12;;;;;;;13.75;5.72;;;18.10;96.70;;;;;;4943817;28;20039;-74
2021/10/29 16:53:41;;;;;;;9.60;5.00;;;18.00;96.70;;;;;;4945039;28;20050;-75
2021/10/29 16:56:12;;;;;;;12.68;5.95;;;18.00;96.70;;;;;;4942596;28;20158;-74
2021/10/29 16:58:41;;;;;;;12.18;6.57;;;17.90;96.70;;;;;;4938914;28;20041;-74
2021/10/29 17:01:09;;;;;;;106.05;78.28;;;17.90;96.70;;;;;;4943516;28;20043;-75
2021/10/29 17:03:37;;;;;;;28.55;17.38;;;17.60;96.70;;;;;;4933500;28;20114;-75
2021/10/29 17:06:05;;;;;;;37.78;26.60;;;17.60;96.70;;;;;;4947207;28;20541;-75
2021/10/29 17:08:34;;;;;;;39.83;27.60;;;17.70;96.70;;;;;;4942383;28;20054;-75
2021/10/29 17:11:03;;;;;;;30.00;20.10;;;17.80;96.70;;;;;;4940875;28;20448;-75
2021/10/29 17:13:31;;;;;;;31.15;20.20;;;17.80;96.70;;;;;;4944359;28;20493;-75
2021/10/29 17:15:59;;;;;;;30.35;19.75;;;17.70;96.70;;;;;;4941787;28;20133;-75
2021/10/29 17:18:29;;;;;;;27.33;18.92;;;17.60;96.70;;;;;;4932464;28;20044;-74
2021/10/29 17:20:57;;;;;;;28.65;20.10;;;17.60;96.70;;;;;;4943360;29;20051;-75
2021/10/29 17:23:25;;;;;;;28.63;17.55;;;17.60;96.70;;;;;;4945461;28;20453;-75
2021/10/29 17:25:52;;;;;;;26.52;16.83;;;17.60;96.70;;;;;;4936504;28;20395;-75
2021/10/29 17:28:23;;;;;;;27.85;17.98;;;17.70;96.70;;;;;;4948089;28;20057;-75
2021/10/29 17:30:51;;;;;;;25.75;16.67;;;17.70;96.70;;;;;;4938047;28;20544;-75
2021/10/29 17:33:19;;;;;;;26.20;17.20;;;17.70;96.70;;;;;;4946770;28;20047;-75
2021/10/29 17:35:48;;;;;;;28.30;17.75;;;17.70;96.70;;;;;;4940226;28;20305;-74
2021/10/29 17:38:16;;;;;;;27.20;16.73;;;17.60;96.70;;;;;;4946471;28;20580;-75
2021/10/29 17:40:44;;;;;;;20.70;14.40;;;17.60;96.70;;;;;;4938268;28;20094;-75
2021/10/29 17:43:12;;;;;;;24.80;14.38;;;17.60;96.70;;;;;;4936684;28;20557;-75
2021/10/29 17:45:44;;;;;;;26.75;15.93;;;17.50;96.70;;;;;;4918030;29;20047;-75
2021/10/29 17:48:12;;;;;;;26.70;16.77;;;17.50;96.70;;;;;;4947811;28;20043;-74
2021/10/29 17:50:40;;;;;;;26.95;14.90;;;17.50;96.70;;;;;;4942918;28;20125;-75
2021/10/29 17:53:08;;;;;;;20.60;14.20;;;17.40;96.70;;;;;;4940071;28;20047;-75
2021/10/29 17:55:37;;;;;;;26.10;15.30;;;17.40;96.70;;;;;;4936885;28;20087;-76
2021/10/29 17:58:06;;;;;;;22.90;14.27;;;17.40;96.70;;;;;;4937976;28;20736;-77
2021/10/29 18:00:34;;;;;;;23.67;14.27;;;17.40;96.70;;;;;;4924181;29;21101;-76